createdAt,value
2023-04-16T00:00:28.649Z,28.40
2023-04-16T00:02:55.871Z,27.90
2023-04-16T00:05:23.239Z,29.50
2023-04-16T00:07:50.268Z,31.47
2023-04-16T00:10:17.546Z,29.70
2023-04-16T00:12:44.605Z,27.27
2023-04-16T00:15:11.873Z,27.00
2023-04-16T00:17:40.336Z,27.73
2023-04-16T00:20:08.137Z,30.30
2023-04-16T00:22:35.224Z,32.10
2023-04-16T00:25:02.298Z,29.40
2023-04-16T00:27:29.389Z,29.10
2023-04-16T00:29:56.462Z,30.43
2023-04-16T00:32:23.720Z,28.43
2023-04-16T00:34:52.207Z,30.33
2023-04-16T00:37:19.330Z,30.27
2023-04-16T00:39:46.613Z,31.67
2023-04-16T00:42:13.689Z,30.97
2023-04-16T00:44:40.820Z,29.67
2023-04-16T00:47:07.917Z,29.90
2023-04-16T00:49:35.463Z,30.30
2023-04-16T00:52:03.956Z,29.77
2023-04-16T00:54:32.206Z,29.40
2023-04-16T00:56:59.386Z,29.67
2023-04-16T00:59:26.715Z,31.53
2023-04-16T01:01:53.878Z,30.07
2023-04-16T01:04:21.339Z,30.20
2023-04-16T01:06:48.510Z,29.03
2023-04-16T01:09:17.177Z,30.10
2023-04-16T01:11:44.262Z,30.50
2023-04-16T01:14:11.315Z,27.90
2023-04-16T01:16:38.563Z,27.50
2023-04-16T01:19:07.259Z,29.00
2023-04-16T01:21:35.820Z,28.37
2023-04-16T01:24:03.323Z,29.30
2023-04-16T01:26:30.471Z,31.17
2023-04-16T01:28:58.430Z,34.40
2023-04-16T01:31:25.559Z,29.93
2023-04-16T01:34:04.031Z,32.13
2023-04-16T01:36:31.150Z,31.23
2023-04-16T01:38:59.633Z,31.80
2023-04-16T01:41:27.281Z,29.10
2023-04-16T01:43:54.340Z,30.20
2023-04-16T01:46:24.698Z,27.67
2023-04-16T01:48:51.823Z,23.20
2023-04-16T01:51:19.603Z,24.63
2023-04-16T01:53:46.685Z,22.87
2023-04-16T01:56:15.103Z,24.33
2023-04-16T01:58:42.223Z,24.67
2023-04-16T02:01:09.597Z,23.43
2023-04-16T02:03:37.688Z,24.20
2023-04-16T02:06:05.023Z,25.40
2023-04-16T02:08:32.275Z,27.33
2023-04-16T02:11:00.086Z,26.03
2023-04-16T02:13:28.617Z,27.17
2023-04-16T02:15:55.935Z,30.57
2023-04-16T02:18:34.894Z,29.33
2023-04-16T02:21:02.289Z,33.43
2023-04-16T02:23:29.305Z,30.97
2023-04-16T02:25:58.610Z,31.83
2023-04-16T02:28:25.831Z,32.47
2023-04-16T02:30:54.258Z,33.87
2023-04-16T02:33:21.855Z,30.20
2023-04-16T02:35:59.767Z,35.70
2023-04-16T02:38:26.820Z,33.63
2023-04-16T02:40:54.315Z,33.67
2023-04-16T02:43:21.365Z,35.27
2023-04-16T02:45:48.424Z,33.00
2023-04-16T02:48:16.910Z,37.70
2023-04-16T02:50:44.014Z,37.57
2023-04-16T02:53:11.150Z,35.70
2023-04-16T02:55:38.281Z,36.93
2023-04-16T02:58:05.410Z,36.40
2023-04-16T03:00:32.620Z,33.87
2023-04-16T03:02:59.903Z,35.77
2023-04-16T03:05:28.278Z,37.40
2023-04-16T03:07:55.359Z,36.33
2023-04-16T03:10:22.555Z,37.63
2023-04-16T03:12:49.684Z,34.83
2023-04-16T03:15:17.155Z,35.10
2023-04-16T03:17:44.491Z,34.60
2023-04-16T03:20:11.849Z,34.33
2023-04-16T03:22:40.396Z,33.53
2023-04-16T03:25:07.891Z,33.70
2023-04-16T03:27:35.056Z,36.07
2023-04-16T03:30:02.699Z,35.03
2023-04-16T03:32:30.675Z,32.57
2023-04-16T03:34:57.775Z,35.23
2023-04-16T03:37:24.910Z,33.80
2023-04-16T03:39:53.575Z,31.83
2023-04-16T03:42:20.638Z,34.20
2023-04-16T03:44:47.741Z,35.70
2023-04-16T03:47:16.190Z,35.00
2023-04-16T03:49:44.557Z,37.17
2023-04-16T03:52:11.692Z,36.27
2023-04-16T03:54:38.850Z,38.17
2023-04-16T03:57:19.952Z,35.30
2023-04-16T03:59:47.219Z,34.20
2023-04-16T04:02:14.488Z,37.60
2023-04-16T04:04:42.977Z,36.67
2023-04-16T04:07:10.986Z,38.07
2023-04-16T04:09:38.081Z,35.90
2023-04-16T04:12:05.211Z,38.40
2023-04-16T04:14:34.801Z,35.20
2023-04-16T04:17:01.818Z,36.30
2023-04-16T04:19:28.870Z,35.40
2023-04-16T04:21:55.994Z,37.57
2023-04-16T04:24:23.160Z,39.10
2023-04-16T04:26:50.411Z,34.77
2023-04-16T04:29:17.640Z,38.60
2023-04-16T04:31:46.216Z,33.77
2023-04-16T04:34:13.412Z,34.07
2023-04-16T04:36:40.448Z,38.00
2023-04-16T04:39:07.633Z,37.13
2023-04-16T04:41:34.989Z,36.70
2023-04-16T04:44:02.458Z,35.23
2023-04-16T04:46:29.647Z,34.20
2023-04-16T04:48:58.075Z,37.13
2023-04-16T04:51:25.201Z,35.90
2023-04-16T04:53:52.304Z,38.43
2023-04-16T04:56:19.394Z,38.87
2023-04-16T04:58:46.458Z,37.00
2023-04-16T05:01:13.664Z,40.07
2023-04-16T05:03:40.899Z,37.80
2023-04-16T05:06:10.566Z,38.20
2023-04-16T05:08:37.619Z,38.20
2023-04-16T05:11:04.769Z,38.67
2023-04-16T05:13:31.777Z,35.43
2023-04-16T05:15:59.315Z,37.30
2023-04-16T05:18:26.388Z,39.07
2023-04-16T05:20:53.463Z,38.13
2023-04-16T05:23:21.862Z,41.30
2023-04-16T05:25:48.958Z,39.40
2023-04-16T05:28:16.113Z,37.30
2023-04-16T05:30:43.246Z,37.70
2023-04-16T05:33:10.250Z,37.33
2023-04-16T05:35:37.394Z,39.83
2023-04-16T05:38:04.443Z,36.63
2023-04-16T05:40:33.133Z,39.10
2023-04-16T05:43:00.182Z,39.83
2023-04-16T05:45:28.142Z,38.47
2023-04-16T05:47:55.334Z,36.40
2023-04-16T05:50:22.442Z,35.50
2023-04-16T05:52:49.555Z,36.83
2023-04-16T05:55:16.619Z,37.03
2023-04-16T05:57:45.145Z,35.37
2023-04-16T06:00:12.509Z,32.90
2023-04-16T06:02:39.903Z,36.33
2023-04-16T06:05:07.369Z,36.03
2023-04-16T06:07:34.478Z,35.57
2023-04-16T06:10:01.496Z,32.90
2023-04-16T06:12:28.555Z,31.17
2023-04-16T06:14:56.972Z,31.57
2023-04-16T06:17:24.139Z,30.50
2023-04-16T06:19:51.193Z,35.47
2023-04-16T06:22:18.254Z,37.07
2023-04-16T06:24:45.355Z,37.83
2023-04-16T06:27:12.433Z,38.17
2023-04-16T06:29:41.589Z,38.37
2023-04-16T06:32:10.496Z,35.50
2023-04-16T06:34:37.982Z,35.23
2023-04-16T06:37:05.118Z,36.33
2023-04-16T06:39:32.277Z,36.80
2023-04-16T06:41:59.338Z,36.27
2023-04-16T06:44:26.417Z,32.10
2023-04-16T06:46:53.627Z,30.60
2023-04-16T06:49:22.070Z,31.50
2023-04-16T06:51:49.189Z,29.57
2023-04-16T06:54:16.268Z,28.10
2023-04-16T06:56:43.374Z,26.13
2023-04-16T06:59:10.625Z,25.27
2023-04-16T07:01:37.871Z,27.37
2023-04-16T07:04:05.244Z,26.50
2023-04-16T07:06:34.092Z,27.20
2023-04-16T07:09:01.152Z,25.37
2023-04-16T07:11:28.263Z,24.07
2023-04-16T07:13:55.320Z,26.33
2023-04-16T07:16:22.424Z,23.30
2023-04-16T07:18:49.509Z,22.67
2023-04-16T07:21:16.584Z,23.03
2023-04-16T07:23:45.029Z,22.23
2023-04-16T07:26:12.138Z,21.80
2023-04-16T07:28:39.191Z,22.53
2023-04-16T07:31:06.389Z,22.70
2023-04-16T07:33:33.434Z,22.63
2023-04-16T07:36:00.499Z,20.33
2023-04-16T07:38:27.620Z,20.80
2023-04-16T07:40:56.599Z,20.57
2023-04-16T07:43:23.647Z,21.30
2023-04-16T07:45:50.803Z,22.60
2023-04-16T07:48:17.969Z,21.47
2023-04-16T07:50:45.022Z,20.90
2023-04-16T07:53:12.051Z,20.23
2023-04-16T07:55:39.172Z,22.93
2023-04-16T07:58:07.535Z,22.43
2023-04-16T08:00:34.661Z,23.47
2023-04-16T08:03:01.907Z,21.20
2023-04-16T08:05:29.230Z,21.33
2023-04-16T08:07:56.385Z,22.03
2023-04-16T08:10:23.505Z,22.17
2023-04-16T08:12:50.545Z,20.87
2023-04-16T08:15:19.132Z,23.07
2023-04-16T08:17:46.270Z,22.90
2023-04-16T08:20:16.939Z,21.07
2023-04-16T08:22:45.615Z,21.60
2023-04-16T08:25:12.660Z,23.53
2023-04-16T08:27:39.706Z,21.70
2023-04-16T08:30:07.392Z,22.67
2023-04-16T08:32:35.852Z,22.00
2023-04-16T08:35:02.989Z,21.13
2023-04-16T08:37:30.052Z,20.67
2023-04-16T08:39:57.116Z,21.90
2023-04-16T08:42:26.767Z,19.47
2023-04-16T08:44:59.579Z,22.20
2023-04-16T08:47:28.143Z,20.93
2023-04-16T08:49:58.391Z,19.20
2023-04-16T08:52:26.471Z,19.80
2023-04-16T08:54:57.332Z,20.47
2023-04-16T08:57:24.894Z,20.43
2023-04-16T08:59:52.375Z,21.33
2023-04-16T09:02:19.779Z,22.00
2023-04-16T09:04:47.635Z,20.47
2023-04-16T09:07:16.362Z,20.00
2023-04-16T09:09:44.374Z,20.70
2023-04-16T09:12:11.499Z,20.03
2023-04-16T09:14:38.569Z,19.87
2023-04-16T09:17:06.840Z,22.13
2023-04-16T09:19:33.918Z,20.43
2023-04-16T09:22:01.073Z,19.67
2023-04-16T09:24:29.800Z,18.80
2023-04-16T09:26:57.385Z,20.90
2023-04-16T09:29:34.270Z,18.63
2023-04-16T09:32:05.232Z,20.60
2023-04-16T09:34:33.201Z,18.97
2023-04-16T09:37:14.573Z,19.47
2023-04-16T09:39:43.034Z,18.90
2023-04-16T09:42:10.075Z,20.97
2023-04-16T09:44:37.763Z,18.40
2023-04-16T09:47:07.010Z,19.10
2023-04-16T09:49:35.057Z,18.37
2023-04-16T09:52:02.415Z,19.60
2023-04-16T09:54:29.538Z,19.87
2023-04-16T09:56:57.918Z,20.53
2023-04-16T09:59:25.097Z,20.17
2023-04-16T10:01:52.245Z,17.40
2023-04-16T10:04:19.604Z,20.07
2023-04-16T10:07:02.708Z,20.33
2023-04-16T10:09:32.695Z,19.57
2023-04-16T10:12:01.143Z,19.47
2023-04-16T10:14:28.185Z,18.53
2023-04-16T10:16:56.191Z,19.33
2023-04-16T10:19:23.362Z,19.17
2023-04-16T10:21:50.452Z,18.27
2023-04-16T10:24:18.423Z,18.50
2023-04-16T10:26:45.781Z,18.80
2023-04-16T10:29:14.282Z,19.27
2023-04-16T10:31:42.128Z,18.83
2023-04-16T10:34:09.785Z,18.27
2023-04-16T10:36:37.243Z,18.90
2023-04-16T10:39:04.852Z,18.97
2023-04-16T10:41:33.459Z,20.30
2023-04-16T10:44:07.231Z,19.13
2023-04-16T10:46:37.401Z,18.13
2023-04-16T10:49:13.300Z,19.43
2023-04-16T10:51:40.403Z,21.00
2023-04-16T10:54:20.089Z,18.87
2023-04-16T10:56:47.848Z,19.40
2023-04-16T10:59:18.188Z,19.23
2023-04-16T11:01:47.574Z,19.13
2023-04-16T11:04:28.221Z,17.47
2023-04-16T11:07:05.310Z,17.60
2023-04-16T11:09:45.561Z,17.83
2023-04-16T11:12:12.978Z,17.37
2023-04-16T11:14:40.442Z,17.80
2023-04-16T11:17:08.926Z,16.90
2023-04-16T11:19:36.660Z,18.90
2023-04-16T11:22:03.851Z,17.67
2023-04-16T11:24:30.994Z,17.07
2023-04-16T11:26:58.056Z,17.27
2023-04-16T11:29:25.233Z,19.70
2023-04-16T11:31:52.520Z,18.73
2023-04-16T11:34:21.517Z,18.37
2023-04-16T11:36:49.493Z,16.97
2023-04-16T11:39:16.642Z,16.20
2023-04-16T11:41:43.890Z,16.80
2023-04-16T11:44:17.536Z,16.77
2023-04-16T11:46:44.636Z,17.17
2023-04-16T11:49:12.018Z,16.13
2023-04-16T11:51:44.302Z,15.60
2023-04-16T11:54:18.812Z,16.03
2023-04-16T11:56:46.509Z,17.17
2023-04-16T11:59:14.595Z,15.57
2023-04-16T12:01:42.807Z,15.03
2023-04-16T12:04:10.445Z,15.60
2023-04-16T12:06:37.715Z,15.57
2023-04-16T12:09:19.690Z,15.97
2023-04-16T12:11:48.075Z,15.03
2023-04-16T12:14:15.237Z,14.63
2023-04-16T12:16:42.378Z,15.10
2023-04-16T12:19:12.164Z,14.17
2023-04-16T12:21:40.381Z,13.50
2023-04-16T12:24:08.136Z,12.40
2023-04-16T12:26:38.749Z,12.07
2023-04-16T12:29:20.623Z,12.53
2023-04-16T12:31:48.228Z,12.40
2023-04-16T12:34:15.648Z,13.37
2023-04-16T12:36:42.898Z,12.23
2023-04-16T12:39:10.324Z,12.73
2023-04-16T12:41:37.954Z,13.40
2023-04-16T12:44:05.878Z,13.43
2023-04-16T12:46:34.355Z,13.60
2023-04-16T12:49:01.412Z,13.33
2023-04-16T12:51:28.488Z,12.70
2023-04-16T12:53:55.517Z,12.93
2023-04-16T12:56:22.560Z,12.60
2023-04-16T12:58:49.588Z,13.53
2023-04-16T13:01:16.638Z,12.63
2023-04-16T13:03:45.080Z,12.77
2023-04-16T13:06:12.900Z,11.80
2023-04-16T13:08:40.095Z,11.43
2023-04-16T13:11:07.279Z,12.27
2023-04-16T13:13:34.303Z,11.50
2023-04-16T13:16:01.392Z,11.30
2023-04-16T13:18:28.481Z,12.20
2023-04-16T13:20:56.867Z,12.30
2023-04-16T13:23:23.991Z,11.40
2023-04-16T13:25:51.155Z,11.43
2023-04-16T13:28:18.271Z,11.70
2023-04-16T13:30:45.983Z,10.83
2023-04-16T13:33:13.149Z,12.27
2023-04-16T13:35:40.280Z,11.70
2023-04-16T13:38:08.688Z,12.33
2023-04-16T13:40:35.778Z,11.73
2023-04-16T13:43:02.843Z,11.90
2023-04-16T13:45:29.947Z,12.80
2023-04-16T13:47:57.131Z,12.20
2023-04-16T13:50:24.283Z,10.50
2023-04-16T13:52:51.646Z,10.80
2023-04-16T13:55:20.262Z,10.87
2023-04-16T13:57:47.615Z,11.97
2023-04-16T14:00:15.235Z,12.30
2023-04-16T14:02:42.781Z,11.40
2023-04-16T14:05:10.054Z,13.50
2023-04-16T14:07:37.796Z,12.63
2023-04-16T14:10:05.098Z,11.80
2023-04-16T14:12:33.639Z,13.53
2023-04-16T14:15:00.759Z,14.30
2023-04-16T14:17:27.888Z,14.60
2023-04-16T14:19:54.977Z,14.23
2023-04-16T14:22:22.052Z,13.77
2023-04-16T14:24:49.136Z,12.77
2023-04-16T14:27:16.239Z,14.17
2023-04-16T14:29:44.654Z,13.30
2023-04-16T14:32:11.758Z,12.87
2023-04-16T14:34:38.961Z,14.80
2023-04-16T14:37:06.338Z,13.30
2023-04-16T14:39:33.395Z,14.90
2023-04-16T14:42:00.512Z,12.87
2023-04-16T14:44:27.610Z,15.27
2023-04-16T14:46:56.044Z,13.53
2023-04-16T14:49:23.132Z,13.83
2023-04-16T14:51:50.212Z,13.20
2023-04-16T14:54:17.370Z,14.17
2023-04-16T14:56:44.432Z,13.87
2023-04-16T14:59:11.731Z,14.47
2023-04-16T15:01:38.926Z,13.67
2023-04-16T15:04:07.755Z,13.20
2023-04-16T15:06:36.075Z,14.83
2023-04-16T15:09:03.430Z,14.27
2023-04-16T15:11:30.707Z,12.67
2023-04-16T15:13:58.513Z,13.03
2023-04-16T15:16:25.705Z,11.90
2023-04-16T15:18:52.876Z,12.87
2023-04-16T15:21:21.306Z,12.90
2023-04-16T15:23:48.419Z,13.40
2023-04-16T15:26:15.515Z,12.70
2023-04-16T15:28:42.603Z,11.00
2023-04-16T15:31:09.761Z,11.87
2023-04-16T15:33:36.906Z,11.87
2023-04-16T15:36:04.047Z,12.53
2023-04-16T15:38:32.444Z,11.10
2023-04-16T15:40:59.518Z,10.53
2023-04-16T15:43:27.619Z,11.33
2023-04-16T15:45:54.689Z,10.97
2023-04-16T15:48:21.751Z,11.07
2023-04-16T15:50:48.910Z,10.87
2023-04-16T15:53:15.946Z,10.90
2023-04-16T15:55:44.393Z,10.13
2023-04-16T15:58:11.460Z,10.27
2023-04-16T16:00:38.586Z,9.70
2023-04-16T16:03:05.882Z,9.20
2023-04-16T16:05:33.135Z,9.97
2023-04-16T16:08:00.253Z,8.93
2023-04-16T16:10:27.289Z,9.47
2023-04-16T16:12:55.626Z,9.23
2023-04-16T16:15:22.682Z,9.10
2023-04-16T16:17:49.891Z,9.90
2023-04-16T16:20:17.013Z,9.33
2023-04-16T16:22:44.126Z,9.80
2023-04-16T16:25:11.189Z,10.00
2023-04-16T16:27:38.340Z,8.70
2023-04-16T16:30:07.728Z,9.27
2023-04-16T16:32:35.007Z,8.50
2023-04-16T16:35:02.157Z,9.27
2023-04-16T16:37:29.195Z,9.60
2023-04-16T16:39:56.271Z,9.27
2023-04-16T16:42:23.320Z,8.80
2023-04-16T16:44:50.415Z,9.33
2023-04-16T16:47:18.819Z,9.73
2023-04-16T16:49:45.948Z,9.47
2023-04-16T16:52:13.081Z,9.50
2023-04-16T16:54:40.151Z,13.77
2023-04-16T16:57:07.867Z,16.70
2023-04-16T16:59:34.954Z,18.77
2023-04-16T17:02:02.044Z,18.37
2023-04-16T17:04:30.488Z,20.70
2023-04-16T17:06:57.779Z,19.80
2023-04-16T17:09:24.934Z,17.83
2023-04-16T17:11:51.992Z,18.00
2023-04-16T17:14:19.110Z,17.77
2023-04-16T17:16:46.420Z,17.03
2023-04-16T17:19:13.580Z,16.40
2023-04-16T17:21:42.002Z,15.77
2023-04-16T17:24:09.313Z,15.50
2023-04-16T17:26:36.721Z,15.40
2023-04-16T17:29:03.750Z,14.87
2023-04-16T17:31:30.877Z,15.47
2023-04-16T17:33:58.027Z,14.53
2023-04-16T17:36:25.067Z,13.80
2023-04-16T17:38:53.505Z,16.13
2023-04-16T17:41:20.593Z,16.90
2023-04-16T17:43:48.164Z,16.47
2023-04-16T17:46:15.317Z,15.87
2023-04-16T17:48:42.492Z,17.07
2023-04-16T17:51:09.887Z,17.37
2023-04-16T17:53:36.928Z,16.53
2023-04-16T17:56:05.781Z,18.60
2023-04-16T17:58:32.956Z,16.53
2023-04-16T18:01:00.124Z,18.10
2023-04-16T18:03:27.377Z,17.00
2023-04-16T18:05:54.628Z,17.83
2023-04-16T18:08:23.440Z,17.90
2023-04-16T18:10:50.649Z,20.27
2023-04-16T18:13:19.140Z,18.77
2023-04-16T18:15:46.364Z,18.97
2023-04-16T18:18:13.724Z,20.23
2023-04-16T18:20:40.978Z,19.83
2023-04-16T18:23:08.069Z,18.77
2023-04-16T18:25:35.484Z,18.87
2023-04-16T18:28:02.725Z,20.90
2023-04-16T18:30:31.351Z,21.43
2023-04-16T18:35:28.449Z,22.63
2023-04-16T18:37:55.499Z,22.67
2023-04-16T18:40:22.555Z,20.63
2023-04-16T18:42:49.658Z,20.43
2023-04-16T18:45:21.628Z,22.57
2023-04-16T18:47:50.521Z,24.20
2023-04-16T18:50:17.668Z,24.07
2023-04-16T18:52:44.732Z,24.33
2023-04-16T18:55:11.730Z,22.90
2023-04-16T18:57:38.891Z,20.53
2023-04-16T19:00:06.570Z,24.23
2023-04-16T19:02:33.705Z,22.23
2023-04-16T19:05:02.225Z,22.57
2023-04-16T19:07:29.310Z,23.07
2023-04-16T19:09:56.400Z,24.60
2023-04-16T19:12:23.554Z,23.40
2023-04-16T19:14:50.647Z,24.07
2023-04-16T19:17:17.719Z,23.20
2023-04-16T19:19:44.752Z,22.97
2023-04-16T19:22:13.168Z,23.87
2023-04-16T19:24:40.184Z,22.90
2023-04-16T19:27:07.335Z,23.00
2023-04-16T19:29:34.477Z,20.43
2023-04-16T19:32:01.736Z,22.97
2023-04-16T19:34:28.850Z,22.67
2023-04-16T19:36:55.926Z,23.60
2023-04-16T19:39:26.231Z,22.00
2023-04-16T19:41:53.307Z,21.33
2023-04-16T19:44:20.337Z,24.03
2023-04-16T19:46:47.399Z,22.70
2023-04-16T19:49:14.415Z,23.50
2023-04-16T19:51:41.447Z,22.50
2023-04-16T19:54:08.480Z,21.60
2023-04-16T19:56:36.866Z,23.43
2023-04-16T19:59:03.923Z,22.70
2023-04-16T20:01:31.010Z,23.07
2023-04-16T20:03:58.134Z,22.60
2023-04-16T20:06:25.259Z,20.87
2023-04-16T20:08:52.299Z,20.83
2023-04-16T20:11:19.325Z,23.43
2023-04-16T20:13:48.132Z,21.30
2023-04-16T20:16:15.275Z,21.83
2023-04-16T20:18:42.466Z,22.33
2023-04-16T20:21:09.690Z,21.50
2023-04-16T20:23:36.766Z,22.03
2023-04-16T20:26:03.835Z,21.20
2023-04-16T20:28:30.939Z,21.10
2023-04-16T20:30:59.323Z,19.87
2023-04-16T20:33:26.541Z,19.17
2023-04-16T20:35:53.659Z,20.37
2023-04-16T20:38:20.724Z,22.17
2023-04-16T20:40:47.768Z,21.50
2023-04-16T20:43:14.798Z,18.90
2023-04-16T20:45:41.886Z,20.37
2023-04-16T20:48:10.349Z,19.07
2023-04-16T20:50:37.431Z,20.43
2023-04-16T20:53:04.513Z,20.60
2023-04-16T20:55:31.614Z,20.27
2023-04-16T20:57:58.654Z,20.90
2023-04-16T21:00:25.835Z,21.03
2023-04-16T21:02:53.043Z,22.03
2023-04-16T21:05:21.754Z,21.50
2023-04-16T21:07:48.951Z,24.70
2023-04-16T21:10:16.166Z,22.50
2023-04-16T21:12:43.215Z,24.50
2023-04-16T21:15:10.563Z,22.00
2023-04-16T21:17:37.642Z,24.40
2023-04-16T21:20:05.101Z,24.70
2023-04-16T21:22:33.587Z,23.83
2023-04-16T21:25:00.671Z,24.10
2023-04-16T21:27:27.715Z,25.53
2023-04-16T21:29:54.746Z,27.20
2023-04-16T21:32:21.858Z,26.07
2023-04-16T21:34:48.910Z,27.30
2023-04-16T21:37:16.032Z,27.10
2023-04-16T21:39:44.384Z,25.17
2023-04-16T21:42:11.439Z,27.17
2023-04-16T21:44:38.546Z,26.57
2023-04-16T21:47:05.746Z,24.90
2023-04-16T21:49:32.960Z,25.30
2023-04-16T21:52:00.014Z,26.50
2023-04-16T21:54:27.262Z,25.93
2023-04-16T21:56:55.764Z,26.67
2023-04-16T21:59:22.880Z,25.40
2023-04-16T22:01:50.128Z,27.47
2023-04-16T22:04:17.400Z,28.17
2023-04-16T22:06:44.516Z,27.77
2023-04-16T22:09:11.849Z,27.77
2023-04-16T22:11:39.064Z,28.33
2023-04-16T22:14:07.528Z,29.97
2023-04-16T22:16:34.668Z,29.10
2023-04-16T22:19:01.809Z,29.73
2023-04-16T22:21:28.885Z,31.83
2023-04-16T22:23:56.016Z,32.90
2023-04-16T22:26:23.053Z,30.23
2023-04-16T22:28:50.138Z,31.87
2023-04-16T22:31:18.531Z,32.67
2023-04-16T22:33:45.627Z,35.27
2023-04-16T22:36:12.693Z,34.33
2023-04-16T22:38:39.764Z,31.30
2023-04-16T22:41:06.869Z,34.97
2023-04-16T22:43:33.985Z,37.63
2023-04-16T22:46:01.705Z,36.33
2023-04-16T22:48:30.170Z,35.10
2023-04-16T22:50:57.272Z,33.03
2023-04-16T22:53:24.438Z,33.97
2023-04-16T22:55:51.643Z,35.63
2023-04-16T22:58:18.736Z,34.37
2023-04-16T23:00:45.860Z,33.50
2023-04-16T23:03:13.001Z,31.87
2023-04-16T23:05:41.419Z,33.67
2023-04-16T23:08:08.570Z,32.97
2023-04-16T23:10:35.759Z,34.63
2023-04-16T23:13:02.823Z,32.80
2023-04-16T23:15:29.975Z,32.73
2023-04-16T23:17:57.122Z,32.53
2023-04-16T23:20:24.189Z,32.50
2023-04-16T23:22:52.642Z,35.47
2023-04-16T23:25:19.789Z,34.77
2023-04-16T23:27:46.881Z,36.07
2023-04-16T23:30:14.168Z,36.90
2023-04-16T23:32:41.234Z,35.50
2023-04-16T23:35:08.962Z,33.97
2023-04-16T23:37:36.142Z,36.63
2023-04-16T23:40:04.925Z,35.93
2023-04-16T23:42:32.033Z,33.90
2023-04-16T23:44:59.270Z,37.53
2023-04-16T23:47:26.403Z,38.40
2023-04-16T23:49:53.475Z,35.37
2023-04-16T23:52:20.540Z,34.70
2023-04-16T23:54:47.691Z,34.30
2023-04-16T23:57:16.139Z,32.23
2023-04-16T23:59:43.195Z,33.27
